Decoded Metar for UKLU (UZHGOROD in UKRAINE) (IATA:UDJ) | Meteo·Mobile Aviation Weather
aviador You're here:

UKLU Decoded Metar

UZHGOROD in UKRAINE
Report Time2019-10-21 07:30:00
UTC Time2019-10-21 07:52:21
Flight Rules vfr VFR
Wind120° at 8 kt
W.Decomp.*RWY 10: 7.7 kt HW 2.3 kt RCW
Visibility9999 m
Phenomena:N/A
Clouds:N/A
Expected CloudBase > 2,400 ft AGL from Temp-Dew spread
CeilingNone
Temp15°C (ISA +1)
Dew Point09°C (68% RH)
AAT11.9°C
QNH1022 hPa
Density Alt328 ft
Elevation384 ft
Report Wrong Elevation
Raw Report
UKLU 210730Z 12004MPS 060V230 9999 NSC 15/09 Q1022 R10/090070
NOSIG=

Extra information for UKLU:More info

Metar Taf Metar & Taf Last 4 Metars F.Rules Stats Wind Profile Meteogram Temp Stats Airport Information Weather charts Add Link Nearby VenuesMetar ALERT Operation Metar Decoded Social comments